createdAt,value
2022-12-18T01:46:40.047Z,7.13
2022-12-18T02:01:45.175Z,8.70
2022-12-18T02:17:04.011Z,7.67
2022-12-18T02:32:14.300Z,7.30
2022-12-18T02:47:23.901Z,6.60
2022-12-18T03:02:42.306Z,6.47
2022-12-18T03:17:53.059Z,6.63
2022-12-18T03:33:11.467Z,6.20
2022-12-18T03:48:20.159Z,5.40
2022-12-18T04:03:28.812Z,5.87
2022-12-18T04:34:20.215Z,5.93
2022-12-18T05:05:05.800Z,6.47
2022-12-18T05:20:19.150Z,7.60
2022-12-18T05:35:23.383Z,8.53
2022-12-18T05:50:27.902Z,9.13
2022-12-18T06:05:39.101Z,9.00
2022-12-18T06:20:44.321Z,9.73
2022-12-18T06:35:48.728Z,9.23
2022-12-18T06:50:52.809Z,9.50
2022-12-18T07:05:56.958Z,8.57
2022-12-18T07:21:04.668Z,9.97
2022-12-18T07:36:09.613Z,11.07
2022-12-18T07:51:14.572Z,10.77
2022-12-18T08:06:19.678Z,10.60
2022-12-18T08:21:29.434Z,12.70
2022-12-18T08:36:34.502Z,12.30
2022-12-18T08:51:39.071Z,13.60
2022-12-18T09:06:44.256Z,12.37
2022-12-18T09:21:49.777Z,13.70
2022-12-18T09:36:54.225Z,12.17
2022-12-18T09:52:11.939Z,12.07
2022-12-18T10:07:25.798Z,13.13
2022-12-18T10:22:38.721Z,11.50
2022-12-18T10:38:02.341Z,10.63
2022-12-18T10:53:07.352Z,10.80
2022-12-18T11:08:23.202Z,11.23
2022-12-18T11:23:27.776Z,10.57
2022-12-18T11:38:33.639Z,11.10
2022-12-18T11:53:39.965Z,10.33
2022-12-18T12:08:49.513Z,10.50
2022-12-18T12:23:58.343Z,10.17
2022-12-18T12:39:05.370Z,11.13
2022-12-18T12:54:24.150Z,11.70
2022-12-18T13:09:31.874Z,11.80
2022-12-18T13:24:38.743Z,12.23
2022-12-18T13:39:44.573Z,11.60
2022-12-18T13:55:01.346Z,13.67
2022-12-18T14:10:25.999Z,11.37
2022-12-18T14:25:32.578Z,11.50
2022-12-18T14:40:37.781Z,10.90
2022-12-18T14:55:47.508Z,11.17
2022-12-18T15:10:51.904Z,11.40
2022-12-18T15:25:59.715Z,12.30
2022-12-18T15:41:08.963Z,11.13
2022-12-18T15:56:38.525Z,9.50
2022-12-18T16:11:44.437Z,12.50
2022-12-18T16:26:48.812Z,10.90
2022-12-18T16:41:53.363Z,11.10
2022-12-18T16:56:59.224Z,12.20
2022-12-18T17:12:04.652Z,11.70
2022-12-18T17:27:09.728Z,11.57
2022-12-18T17:42:15.676Z,11.07
2022-12-18T17:57:20.660Z,11.30
2022-12-18T18:12:47.078Z,11.30
2022-12-18T18:27:51.259Z,10.80
2022-12-18T18:42:55.431Z,10.97
2022-12-18T18:57:59.787Z,10.30
2022-12-18T19:13:25.581Z,11.23
2022-12-18T19:28:29.928Z,11.50
2022-12-18T19:43:36.755Z,11.00
2022-12-18T19:58:41.443Z,11.13
2022-12-18T20:13:45.901Z,12.03
2022-12-18T20:28:50.191Z,12.50
2022-12-18T20:43:54.472Z,11.93
2022-12-18T20:58:59.059Z,13.10
2022-12-18T21:14:04.676Z,13.20
2022-12-18T21:29:12.201Z,11.63
2022-12-18T21:44:17.476Z,12.10
2022-12-18T21:59:23.632Z,12.77
2022-12-18T22:14:28.176Z,12.60
2022-12-18T22:29:52.411Z,12.33
2022-12-18T22:44:57.094Z,12.30
2022-12-18T23:00:01.197Z,12.47
2022-12-18T23:15:05.975Z,11.70
2022-12-18T23:30:10.415Z,12.83
2022-12-18T23:45:18.195Z,11.67
